Time;durP1;ratioP1;P1;durP2;ratioP2;P2;SDS_P1;SDS_P2;PMS_P1;PMS_P2;Temp;Humidity;BMP_temperature;BMP_pressure;BME280_temperature;BME280_humidity;BME280_pressure;Samples;Min_cycle;Max_cycle;Signal;HPM_P1;HPM_P2
2022/03/21 00:02:21;0.00;0.00;0.62;0.00;0.00;0.62;3.83;2.40;;;25.20;19.90;;;;;;2231643;62;20435;-58
2022/03/21 00:05:07;0.00;0.00;0.62;0.00;0.00;0.62;3.70;2.80;;;25.20;20.00;;;;;;2231900;62;20372;-56
2022/03/21 00:07:53;0.00;0.00;0.62;0.00;0.00;0.62;2.73;2.53;;;25.20;20.00;;;;;;2232529;62;20956;-51
2022/03/21 00:10:39;0.00;0.00;0.62;0.00;0.00;0.62;3.60;2.67;;;25.20;20.10;;;;;;2231566;62;20505;-55
2022/03/21 00:13:24;0.00;0.00;0.62;0.00;0.00;0.62;3.47;2.47;;;25.10;20.10;;;;;;2231658;62;20949;-50
2022/03/21 00:16:12;0.00;0.00;0.62;0.00;0.00;0.62;4.03;2.03;;;25.10;20.10;;;;;;2279581;58;20431;-57
2022/03/21 00:18:57;0.00;0.00;0.62;0.00;0.00;0.62;2.97;2.20;;;25.10;20.20;;;;;;2232039;62;20469;-57
2022/03/21 00:21:41;0.00;0.00;0.62;0.00;0.00;0.62;2.77;2.47;;;25.10;20.20;;;;;;2232069;62;20475;-59
2022/03/21 00:24:27;0.00;0.00;0.62;0.00;0.00;0.62;2.57;1.90;;;25.10;20.20;;;;;;2231785;62;20372;-51
2022/03/21 00:27:12;0.00;0.00;0.62;0.00;0.00;0.62;3.20;2.37;;;25.10;20.30;;;;;;2231630;62;20371;-54
2022/03/21 00:30:06;0.00;0.00;0.62;0.00;0.00;0.62;1.97;1.73;;;25.20;20.40;;;;;;2231474;62;20451;-52
2022/03/21 00:32:51;0.00;0.00;0.62;0.00;0.00;0.62;3.57;2.30;;;25.10;20.40;;;;;;2231315;62;20387;-55
2022/03/21 00:35:37;0.00;0.00;0.62;0.00;0.00;0.62;2.60;2.07;;;25.10;20.40;;;;;;2231340;62;20387;-52
2022/03/21 00:38:21;0.00;0.00;0.62;0.00;0.00;0.62;2.83;1.97;;;25.10;20.40;;;;;;2231660;62;20368;-53
2022/03/21 00:41:08;0.00;0.00;0.62;0.00;0.00;0.62;2.20;1.80;;;25.10;20.40;;;;;;2231757;62;20427;-53
2022/03/21 00:43:53;0.00;0.00;0.62;0.00;0.00;0.62;2.40;2.10;;;25.10;20.40;;;;;;2232020;62;20376;-55
2022/03/21 00:46:38;0.00;0.00;0.62;0.00;0.00;0.62;2.30;1.70;;;25.10;20.30;;;;;;2231587;62;20452;-56
2022/03/21 00:49:22;0.00;0.00;0.62;0.00;0.00;0.62;2.10;1.70;;;25.10;20.20;;;;;;2231462;62;20489;-53
2022/03/21 00:52:08;0.00;0.00;0.62;0.00;0.00;0.62;2.80;2.47;;;25.10;20.20;;;;;;2232029;62;20435;-58
2022/03/21 00:54:53;0.00;0.00;0.62;0.00;0.00;0.62;3.97;3.30;;;25.10;20.10;;;;;;2231497;62;20370;-54
2022/03/21 00:57:42;0.00;0.00;0.62;0.00;0.00;0.62;3.33;3.03;;;25.10;19.90;;;;;;2231662;62;20460;-52
2022/03/21 01:00:29;0.00;0.00;0.62;0.00;0.00;0.62;4.10;3.30;;;25.10;19.90;;;;;;2231258;62;20427;-55
2022/03/21 01:03:14;0.00;0.00;0.62;0.00;0.00;0.62;4.90;3.13;;;25.10;19.80;;;;;;2231998;62;20814;-53
2022/03/21 01:05:59;0.00;0.00;0.62;0.00;0.00;0.62;5.20;4.07;;;25.00;19.60;;;;;;2231833;62;20378;-51
2022/03/21 01:08:44;0.00;0.00;0.62;0.00;0.00;0.62;3.90;3.20;;;25.00;19.50;;;;;;2231320;62;20411;-54
2022/03/21 01:11:28;0.00;0.00;0.62;0.00;0.00;0.62;3.70;3.30;;;25.00;19.50;;;;;;2231707;62;20422;-51
2022/03/21 01:14:15;0.00;0.00;0.62;0.00;0.00;0.62;3.57;3.27;;;25.00;19.40;;;;;;2232164;62;20367;-52
2022/03/21 01:16:59;0.00;0.00;0.62;0.00;0.00;0.62;4.07;3.40;;;25.00;19.40;;;;;;2231326;62;20375;-51
2022/03/21 01:19:44;0.00;0.00;0.62;0.00;0.00;0.62;5.37;4.27;;;25.00;19.30;;;;;;2231231;62;20968;-51
2022/03/21 01:22:28;0.00;0.00;0.62;0.00;0.00;0.62;4.60;3.70;;;25.00;19.30;;;;;;2231357;62;20383;-55
2022/03/21 01:25:14;0.00;0.00;0.62;0.00;0.00;0.62;4.13;3.73;;;24.90;19.10;;;;;;2231947;62;20937;-51
2022/03/21 01:27:58;0.00;0.00;0.62;0.00;0.00;0.62;4.33;3.93;;;24.90;19.10;;;;;;2231571;62;20516;-51
2022/03/21 01:30:44;0.00;0.00;0.62;0.00;0.00;0.62;4.90;4.23;;;24.80;19.00;;;;;;2231142;62;20376;-55
2022/03/21 01:33:31;0.00;0.00;0.62;0.00;0.00;0.62;5.43;4.87;;;24.90;19.00;;;;;;2231643;62;20403;-52
2022/03/21 01:36:15;0.00;0.00;0.62;0.00;0.00;0.62;4.87;4.00;;;24.80;18.90;;;;;;2231712;62;20805;-55
2022/03/21 01:39:00;0.00;0.00;0.62;0.00;0.00;0.62;5.67;4.37;;;24.80;18.90;;;;;;2231186;62;20407;-53
2022/03/21 01:41:45;0.00;0.00;0.62;0.00;0.00;0.62;4.87;4.40;;;24.80;18.90;;;;;;2231141;62;20388;-52
2022/03/21 01:44:30;0.00;0.00;0.62;0.00;0.00;0.62;4.33;3.93;;;24.80;18.90;;;;;;2231528;62;20363;-53
2022/03/21 01:47:16;0.00;0.00;0.62;0.00;0.00;0.62;4.63;4.23;;;24.70;18.80;;;;;;2231957;62;20375;-56
2022/03/21 01:50:00;0.00;0.00;0.62;0.00;0.00;0.62;5.70;5.10;;;24.70;18.80;;;;;;2231376;62;20648;-54
2022/03/21 01:52:46;0.00;0.00;0.62;0.00;0.00;0.62;5.00;4.50;;;24.70;18.70;;;;;;2231323;62;20873;-52
2022/03/21 01:55:47;0.00;0.00;0.62;0.00;0.00;0.62;5.20;4.70;;;24.70;18.70;;;;;;2231494;62;20395;-51
2022/03/21 01:58:34;0.00;0.00;0.62;0.00;0.00;0.62;5.30;4.70;;;24.60;18.60;;;;;;2231725;62;20371;-51
2022/03/21 02:01:20;0.00;0.00;0.62;0.00;0.00;0.62;7.67;5.10;;;24.60;18.60;;;;;;2231075;62;20432;-53
2022/03/21 02:04:07;0.00;0.00;0.62;0.00;0.00;0.62;5.67;4.30;;;24.60;18.60;;;;;;2231556;62;20914;-54
2022/03/21 02:06:53;0.00;0.00;0.62;0.00;0.00;0.62;5.40;4.90;;;24.60;18.60;;;;;;2231251;62;20928;-57
2022/03/21 02:09:38;0.00;0.00;0.62;0.00;0.00;0.62;5.40;4.90;;;24.50;18.60;;;;;;2231571;62;20415;-54
2022/03/21 02:12:23;0.00;0.00;0.62;0.00;0.00;0.62;5.30;4.80;;;24.50;18.50;;;;;;2231332;62;20524;-51
2022/03/21 02:15:09;0.00;0.00;0.62;0.00;0.00;0.62;5.97;5.37;;;24.50;18.50;;;;;;2230922;62;20426;-52
2022/03/21 02:18:01;0.00;0.00;0.62;0.00;0.00;0.62;6.17;5.40;;;24.40;18.50;;;;;;2231413;62;20415;-55
2022/03/21 02:20:49;0.00;0.00;0.62;0.00;0.00;0.62;5.37;4.87;;;24.40;18.50;;;;;;2232264;62;20439;-52
2022/03/21 02:23:41;0.00;0.00;0.62;0.00;0.00;0.62;6.37;5.20;;;24.40;18.50;;;;;;2232171;62;20403;-52
2022/03/21 02:26:29;0.00;0.00;0.62;0.00;0.00;0.62;5.60;5.03;;;24.30;18.40;;;;;;2232305;62;20372;-52
2022/03/21 02:29:16;0.00;0.00;0.62;0.00;0.00;0.62;5.50;4.90;;;24.30;18.40;;;;;;2232080;62;20915;-50
2022/03/21 02:32:00;0.00;0.00;0.62;0.00;0.00;0.62;6.13;5.53;;;24.30;18.40;;;;;;2232437;62;20390;-52
2022/03/21 02:34:46;0.00;0.00;0.62;0.00;0.00;0.62;5.60;4.77;;;24.20;18.30;;;;;;2232241;62;20395;-53
2022/03/21 02:37:31;0.00;0.00;0.62;0.00;0.00;0.62;6.90;5.17;;;24.20;18.40;;;;;;2231913;62;20378;-50
2022/03/21 02:40:16;0.00;0.00;0.62;0.00;0.00;0.62;6.77;6.07;;;24.20;18.30;;;;;;2231815;62;20372;-51
2022/03/21 02:43:03;0.00;0.00;0.62;0.00;0.00;0.62;7.33;6.00;;;24.20;18.40;;;;;;2232352;62;20402;-54
2022/03/21 02:45:48;0.00;0.00;0.62;0.00;0.00;0.62;5.73;5.10;;;24.20;18.40;;;;;;2231873;62;20403;-57
2022/03/21 02:48:33;0.00;0.00;0.62;0.00;0.00;0.62;7.07;5.23;;;24.10;18.30;;;;;;2232205;62;20893;-52
2022/03/21 02:51:23;0.00;0.00;0.62;0.00;0.00;0.62;6.90;5.00;;;24.10;18.30;;;;;;2231659;62;20402;-52
2022/03/21 02:54:08;0.00;0.00;0.62;0.00;0.00;0.62;6.50;5.23;;;24.10;18.30;;;;;;2232059;62;20459;-53
2022/03/21 02:56:52;0.00;0.00;0.62;0.00;0.00;0.62;6.83;6.13;;;24.10;18.30;;;;;;2232163;62;20992;-52
2022/03/21 02:59:38;0.00;0.00;0.62;0.00;0.00;0.62;5.93;5.33;;;24.10;18.30;;;;;;2231801;62;20888;-51
2022/03/21 03:02:23;0.00;0.00;0.62;0.00;0.00;0.62;5.93;5.10;;;24.10;18.30;;;;;;2232164;62;20798;-51
2022/03/21 03:05:08;0.00;0.00;0.62;0.00;0.00;0.62;6.50;5.47;;;24.00;18.30;;;;;;2232608;62;20370;-51
2022/03/21 03:07:53;0.00;0.00;0.62;0.00;0.00;0.62;6.10;5.50;;;24.00;18.70;;;;;;2232698;62;20363;-53
2022/03/21 03:10:37;0.00;0.00;0.62;0.00;0.00;0.62;5.40;4.70;;;24.00;18.20;;;;;;2232742;62;20410;-51
2022/03/21 03:13:22;0.00;0.00;0.62;0.00;0.00;0.62;5.40;4.90;;;24.00;18.30;;;;;;2232461;62;20402;-59
2022/03/21 03:16:10;0.00;0.00;0.62;0.00;0.00;0.62;6.50;5.80;;;24.00;18.30;;;;;;2232312;62;20442;-53
2022/03/21 03:18:54;0.00;0.00;0.62;0.00;0.00;0.62;5.50;4.97;;;23.90;18.20;;;;;;2231414;62;20414;-51
2022/03/21 03:21:43;0.00;0.00;0.62;0.00;0.00;0.62;6.03;5.27;;;23.90;18.20;;;;;;2231649;62;20388;-52
2022/03/21 03:24:28;0.00;0.00;0.62;0.00;0.00;0.62;6.30;5.70;;;23.90;18.20;;;;;;2232106;62;20363;-54
2022/03/21 03:27:12;0.00;0.00;0.62;0.00;0.00;0.62;6.47;5.80;;;23.80;18.10;;;;;;2232436;62;20403;-52
2022/03/21 03:29:57;0.00;0.00;0.62;0.00;0.00;0.62;6.17;5.60;;;23.80;18.10;;;;;;2231393;62;20416;-51
2022/03/21 03:32:44;0.00;0.00;0.62;0.00;0.00;0.62;5.60;5.10;;;23.80;18.10;;;;;;2232001;62;20395;-51
2022/03/21 03:35:29;0.00;0.00;0.62;0.00;0.00;0.62;6.37;5.67;;;23.80;18.10;;;;;;2231912;62;20404;-54
2022/03/21 03:38:15;0.00;0.00;0.62;0.00;0.00;0.62;7.83;6.33;;;23.80;18.10;;;;;;2232262;62;20379;-58
2022/03/21 03:41:00;0.00;0.00;0.62;0.00;0.00;0.62;5.60;5.10;;;23.80;18.20;;;;;;2231633;62;20504;-52
2022/03/21 03:43:44;0.00;0.00;0.62;0.00;0.00;0.62;6.20;5.57;;;23.70;18.10;;;;;;2231730;62;20451;-52
2022/03/21 03:46:29;0.00;0.00;0.62;0.00;0.00;0.62;6.17;5.53;;;23.70;18.10;;;;;;2231438;62;20360;-52
2022/03/21 03:49:15;0.00;0.00;0.62;0.00;0.00;0.62;5.60;5.00;;;23.70;18.10;;;;;;2232069;62;20838;-52
2022/03/21 03:51:59;0.00;0.00;0.62;0.00;0.00;0.62;5.67;5.10;;;23.70;18.10;;;;;;2231649;62;20879;-55
2022/03/21 03:54:44;0.00;0.00;0.62;0.00;0.00;0.62;6.50;5.90;;;23.70;18.20;;;;;;2231916;62;20404;-53
2022/03/21 03:57:29;0.00;0.00;0.62;0.00;0.00;0.62;6.23;4.87;;;23.70;18.10;;;;;;2232158;62;20777;-51
2022/03/21 04:00:16;0.00;0.00;0.62;0.00;0.00;0.62;6.33;5.47;;;23.60;18.10;;;;;;2231843;62;20352;-55
2022/03/21 04:06:06;0.00;0.00;0.62;0.00;0.00;0.62;6.23;5.53;;;23.60;18.10;;;;;;2231795;62;20416;-55
2022/03/21 04:08:52;0.00;0.00;0.62;0.00;0.00;0.62;6.47;5.87;;;23.60;18.10;;;;;;2231699;62;20370;-55
2022/03/21 04:11:37;0.00;0.00;0.62;0.00;0.00;0.62;7.53;6.00;;;23.50;18.10;;;;;;2232075;62;20391;-52
2022/03/21 04:14:21;0.00;0.00;0.62;0.00;0.00;0.62;7.57;5.93;;;23.50;18.10;;;;;;2231968;62;20767;-53
2022/03/21 04:17:06;0.00;0.00;0.62;0.00;0.00;0.62;6.13;5.53;;;23.50;18.10;;;;;;2231733;62;20836;-52
2022/03/21 04:19:50;0.00;0.00;0.62;0.00;0.00;0.62;6.67;5.73;;;23.50;18.10;;;;;;2231749;62;20444;-53
2022/03/21 04:22:36;0.00;0.00;0.62;0.00;0.00;0.62;6.40;5.80;;;23.50;18.10;;;;;;2228540;62;20452;-51
2022/03/21 04:25:21;0.00;0.00;0.62;0.00;0.00;0.62;6.80;6.10;;;23.40;18.10;;;;;;2227930;62;20635;-55
2022/03/21 04:28:09;0.00;0.00;0.62;0.00;0.00;0.62;7.00;6.10;;;23.40;18.00;;;;;;2227992;62;20395;-55
2022/03/21 04:30:54;0.00;0.00;0.62;0.00;0.00;0.62;6.00;5.47;;;23.40;18.10;;;;;;2227557;62;20776;-57
2022/03/21 04:33:38;0.00;0.00;0.62;0.00;0.00;0.62;7.00;6.30;;;23.40;18.10;;;;;;2228099;62;20357;-53
2022/03/21 04:36:23;0.00;0.00;0.62;0.00;0.00;0.62;6.80;6.10;;;23.40;18.10;;;;;;2227677;62;20392;-52
2022/03/21 04:39:09;0.00;0.00;0.62;0.00;0.00;0.62;6.73;5.50;;;23.30;18.00;;;;;;2227569;62;20905;-53
2022/03/21 04:41:53;0.00;0.00;0.62;0.00;0.00;0.62;7.73;6.10;;;23.30;18.00;;;;;;2230196;62;20452;-56
2022/03/21 04:44:39;0.00;0.00;0.62;0.00;0.00;0.62;6.77;6.10;;;23.30;18.00;;;;;;2228100;62;20453;-51
2022/03/21 04:47:24;0.00;0.00;0.62;0.00;0.00;0.62;6.90;5.07;;;23.30;18.00;;;;;;2227693;62;20911;-52
2022/03/21 04:50:09;0.00;0.00;0.62;0.00;0.00;0.62;6.80;6.10;;;23.30;18.00;;;;;;2227455;62;20372;-56
2022/03/21 04:52:54;0.00;0.00;0.62;0.00;0.00;0.62;6.07;5.47;;;23.20;18.00;;;;;;2227837;62;20951;-54
2022/03/21 04:55:40;0.00;0.00;0.62;0.00;0.00;0.62;5.90;5.40;;;23.20;18.00;;;;;;2228141;62;20459;-55
2022/03/21 04:58:25;0.00;0.00;0.62;0.00;0.00;0.62;6.70;5.97;;;23.20;17.90;;;;;;2227383;62;20508;-53
2022/03/21 05:01:10;0.00;0.00;0.62;0.00;0.00;0.62;7.00;6.30;;;23.20;17.80;;;;;;2227639;62;20383;-52
2022/03/21 05:03:56;0.00;0.00;0.62;0.00;0.00;0.62;6.20;5.60;;;23.20;17.70;;;;;;2228226;62;20493;-56
2022/03/21 05:06:40;0.00;0.00;0.62;0.00;0.00;0.62;6.40;5.80;;;23.10;18.10;;;;;;2228024;62;20889;-56
2022/03/21 05:09:25;0.00;0.00;0.62;0.00;0.00;0.62;6.53;5.70;;;23.10;17.60;;;;;;2225817;62;21255;-56
2022/03/21 05:12:12;0.00;0.00;0.62;0.00;0.00;0.62;6.50;5.80;;;23.10;17.70;;;;;;2456546;54;20499;-52
2022/03/21 05:14:57;0.00;0.00;0.62;0.00;0.00;0.62;6.70;6.10;;;23.10;17.70;;;;;;2227731;62;20444;-58
2022/03/21 05:17:41;0.00;0.00;0.62;0.00;0.00;0.62;6.10;5.50;;;23.00;17.70;;;;;;2231104;62;20789;-55
2022/03/21 05:20:27;0.00;0.00;0.62;0.00;0.00;0.62;5.63;5.13;;;23.00;18.20;;;;;;2231119;62;20825;-52
2022/03/21 05:32:23;0.00;0.00;0.62;0.00;0.00;0.62;5.97;5.20;;;22.90;17.70;;;;;;2231792;62;20387;-58
2022/03/21 05:38:11;0.00;0.00;0.62;0.00;0.00;0.62;6.20;5.60;;;22.90;17.70;;;;;;2231608;62;20423;-53
2022/03/21 05:41:00;0.00;0.00;0.62;0.00;0.00;0.62;6.33;5.73;;;22.90;17.60;;;;;;2231808;62;20368;-51
2022/03/21 05:43:45;0.00;0.00;0.62;0.00;0.00;0.62;6.30;5.53;;;22.90;17.60;;;;;;2230583;62;20375;-59
2022/03/21 05:46:30;0.00;0.00;0.62;0.00;0.00;0.62;7.03;6.23;;;22.90;17.50;;;;;;2231494;62;20370;-58
2022/03/21 05:49:15;0.00;0.00;0.62;0.00;0.00;0.62;9.73;5.90;;;22.80;17.40;;;;;;2231156;62;20415;-55
2022/03/21 05:51:59;0.00;0.00;0.62;0.00;0.00;0.62;8.40;6.37;;;22.80;17.40;;;;;;2231862;62;20529;-56
2022/03/21 05:54:44;0.00;0.00;0.62;0.00;0.00;0.62;6.30;5.70;;;22.80;17.40;;;;;;2232715;62;20864;-55
2022/03/21 05:57:29;0.00;0.00;0.62;0.00;0.00;0.62;6.63;5.57;;;22.80;17.40;;;;;;2232010;62;20366;-56
2022/03/21 06:00:20;0.00;0.00;0.62;0.00;0.00;0.62;8.00;6.60;;;22.80;17.40;;;;;;2232092;62;20367;-56
2022/03/21 06:03:08;0.00;0.00;0.62;0.00;0.00;0.62;6.87;5.93;;;22.70;17.40;;;;;;2232363;62;20467;-52
2022/03/21 06:05:57;0.00;0.00;0.62;0.00;0.00;0.62;6.50;5.60;;;22.70;17.50;;;;;;2232293;62;20360;-54
2022/03/21 06:08:43;0.00;0.00;0.62;0.00;0.00;0.62;7.10;5.40;;;22.70;17.60;;;;;;2232190;62;20426;-52
2022/03/21 06:11:28;0.00;0.00;0.62;0.00;0.00;0.62;6.53;5.33;;;22.70;17.70;;;;;;2231742;62;20390;-51
2022/03/21 06:14:12;0.00;0.00;0.62;0.00;0.00;0.62;5.50;5.00;;;22.70;17.80;;;;;;2232561;62;20904;-54
2022/03/21 06:16:57;0.00;0.00;0.62;0.00;0.00;0.62;5.40;4.70;;;22.70;17.90;;;;;;2232245;62;20395;-52
2022/03/21 06:19:43;0.00;0.00;0.62;0.00;0.00;0.62;6.03;5.43;;;22.70;17.90;;;;;;2231617;62;20422;-51
2022/03/21 06:22:27;0.00;0.00;0.62;0.00;0.00;0.62;6.00;4.93;;;22.70;18.00;;;;;;2232183;62;20391;-55
2022/03/21 06:25:12;0.00;0.00;0.62;0.00;0.00;0.62;5.40;4.40;;;22.70;18.00;;;;;;2232363;62;20419;-55
2022/03/21 06:28:01;0.00;0.00;0.62;0.00;0.00;0.62;5.47;4.73;;;22.70;18.00;;;;;;2232120;62;20371;-55
2022/03/21 06:30:45;0.00;0.00;0.62;0.00;0.00;0.62;5.77;3.80;;;22.70;18.10;;;;;;2231815;62;20367;-52
2022/03/21 06:33:31;0.00;0.00;0.62;0.00;0.00;0.62;4.90;4.10;;;22.70;18.10;;;;;;2231874;62;20788;-55
2022/03/21 06:36:17;0.00;0.00;0.62;0.00;0.00;0.62;4.60;4.20;;;22.70;18.10;;;;;;2232313;62;20565;-58
2022/03/21 06:39:02;0.00;0.00;0.62;0.00;0.00;0.62;5.33;4.67;;;22.70;18.20;;;;;;2232265;62;20367;-51
2022/03/21 06:41:46;0.00;0.00;0.62;0.00;0.00;0.62;4.80;4.30;;;22.70;18.20;;;;;;2231944;62;20472;-55
2022/03/21 06:44:31;0.00;0.00;0.62;0.00;0.00;0.62;5.60;4.93;;;22.70;18.20;;;;;;2232590;62;20816;-55
2022/03/21 06:47:19;0.00;0.00;0.62;0.00;0.00;0.62;4.20;3.80;;;22.70;18.20;;;;;;2232957;62;20502;-54
2022/03/21 06:50:06;0.00;0.00;0.62;0.00;0.00;0.62;4.37;3.90;;;22.70;18.20;;;;;;2234131;62;20363;-53
2022/03/21 06:52:52;0.00;0.00;0.62;0.00;0.00;0.62;4.27;3.50;;;22.70;18.30;;;;;;2233463;62;20659;-54
2022/03/21 06:55:44;0.00;0.00;0.62;0.00;0.00;0.62;4.47;4.07;;;22.70;18.30;;;;;;2233065;62;20399;-51
2022/03/21 06:58:29;0.00;0.00;0.62;0.00;0.00;0.62;3.67;3.33;;;22.70;18.30;;;;;;2232420;62;20391;-51
2022/03/21 07:01:14;0.00;0.00;0.62;0.00;0.00;0.62;3.90;3.33;;;22.70;18.30;;;;;;2231984;62;20383;-55
2022/03/21 07:03:59;0.00;0.00;0.62;0.00;0.00;0.62;4.03;3.63;;;22.70;18.30;;;;;;2231973;62;20501;-53
2022/03/21 07:06:43;0.00;0.00;0.62;0.00;0.00;0.62;4.40;3.70;;;22.70;18.30;;;;;;2231993;62;20364;-51
2022/03/21 07:09:29;0.00;0.00;0.62;0.00;0.00;0.62;3.57;3.27;;;22.70;18.40;;;;;;2232108;62;20363;-57
2022/03/21 07:12:14;0.00;0.00;0.62;0.00;0.00;0.62;3.53;3.23;;;22.70;18.40;;;;;;2232029;62;20422;-52
2022/03/21 07:14:58;0.00;0.00;0.62;0.00;0.00;0.62;3.90;3.50;;;22.70;18.40;;;;;;2231908;62;20391;-52
2022/03/21 07:17:43;0.00;0.00;0.62;0.00;0.00;0.62;4.20;3.27;;;22.80;18.50;;;;;;2234090;62;20463;-55
2022/03/21 07:20:28;0.00;0.00;0.62;0.00;0.00;0.62;4.00;3.60;;;22.80;18.50;;;;;;2232069;62;20403;-53
2022/03/21 07:23:13;0.00;0.00;0.62;0.00;0.00;0.62;4.10;3.57;;;22.80;18.50;;;;;;2231830;62;20900;-55
2022/03/21 07:25:59;0.00;0.00;0.62;0.00;0.00;0.62;3.93;3.40;;;22.80;18.50;;;;;;2231918;62;20363;-53
2022/03/21 07:28:43;0.00;0.00;0.62;0.00;0.00;0.62;3.23;2.93;;;22.80;18.50;;;;;;2232060;62;20372;-54
2022/03/21 07:31:28;0.00;0.00;0.62;0.00;0.00;0.62;3.63;3.30;;;22.80;18.50;;;;;;2232154;62;20428;-54
2022/03/21 07:34:13;0.00;0.00;0.62;0.00;0.00;0.62;3.30;3.00;;;22.80;19.10;;;;;;2231781;62;20375;-51
2022/03/21 07:36:58;0.00;0.00;0.62;0.00;0.00;0.62;3.07;2.73;;;22.80;18.60;;;;;;2231674;62;20446;-52
2022/03/21 07:39:46;0.00;0.00;0.62;0.00;0.00;0.62;3.90;3.60;;;22.80;18.60;;;;;;2231844;62;20414;-54
2022/03/21 07:42:33;0.00;0.00;0.62;0.00;0.00;0.62;3.93;3.37;;;22.80;18.60;;;;;;2232203;62;21085;-51
2022/03/21 07:48:21;0.00;0.00;0.62;0.00;0.00;0.62;3.50;3.03;;;22.80;18.60;;;;;;2231815;62;20781;-56
2022/03/21 07:51:07;0.00;0.00;0.62;0.00;0.00;0.62;3.10;2.80;;;22.90;18.70;;;;;;2231602;62;20395;-54
2022/03/21 07:53:52;0.00;0.00;0.62;0.00;0.00;0.62;3.50;2.93;;;22.90;18.70;;;;;;2232180;62;20400;-51
2022/03/21 07:56:36;0.00;0.00;0.62;0.00;0.00;0.62;3.33;3.03;;;22.90;18.70;;;;;;2231783;62;20944;-52
2022/03/21 07:59:22;0.00;0.00;0.62;0.00;0.00;0.62;3.43;2.83;;;22.90;18.70;;;;;;2231709;62;20374;-51
2022/03/21 08:02:07;0.00;0.00;0.62;0.00;0.00;0.62;3.50;3.10;;;22.90;18.70;;;;;;2231919;62;20766;-51
2022/03/21 08:04:52;0.00;0.00;0.62;0.00;0.00;0.62;3.40;3.10;;;22.90;18.70;;;;;;2232295;62;20669;-55
2022/03/21 08:07:37;0.00;0.00;0.62;0.00;0.00;0.62;3.37;2.97;;;22.90;18.70;;;;;;2231928;62;20367;-54
2022/03/21 08:10:22;0.00;0.00;0.62;0.00;0.00;0.62;3.70;2.90;;;22.90;18.70;;;;;;2231495;62;20497;-52
2022/03/21 08:13:08;0.00;0.00;0.62;0.00;0.00;0.62;2.80;2.60;;;22.90;19.00;;;;;;2231694;62;20396;-54
2022/03/21 08:15:54;0.00;0.00;0.62;0.00;0.00;0.62;2.80;2.60;;;22.90;18.70;;;;;;2231996;62;20447;-52
2022/03/21 08:18:39;0.00;0.00;0.62;0.00;0.00;0.62;4.10;2.80;;;22.90;18.70;;;;;;2231684;62;20730;-54
2022/03/21 08:21:24;0.00;0.00;0.62;0.00;0.00;0.62;3.57;3.23;;;23.00;18.80;;;;;;2231795;62;20416;-51
2022/03/21 08:24:12;0.00;0.00;0.62;0.00;0.00;0.62;3.80;2.90;;;23.00;18.80;;;;;;2232138;62;20371;-51
2022/03/21 08:26:56;0.00;0.00;0.62;0.00;0.00;0.62;4.43;3.30;;;23.00;18.80;;;;;;2232087;62;20384;-53
2022/03/21 08:29:41;0.00;0.00;0.62;0.00;0.00;0.62;2.53;2.30;;;23.00;18.80;;;;;;2231488;62;20451;-52
2022/03/21 08:32:26;0.00;0.00;0.62;0.00;0.00;0.62;3.40;2.90;;;23.00;18.80;;;;;;2231639;62;20479;-51
2022/03/21 08:35:11;0.00;0.00;0.62;0.00;0.00;0.62;2.87;2.43;;;23.00;18.80;;;;;;2231816;62;20840;-49
2022/03/21 08:37:56;0.00;0.00;0.62;0.00;0.00;0.62;3.20;2.47;;;23.00;18.80;;;;;;2232089;62;20383;-54
2022/03/21 08:40:40;0.00;0.00;0.62;0.00;0.00;0.62;3.07;2.60;;;23.00;18.80;;;;;;2231425;62;20447;-51
2022/03/21 08:43:27;0.00;0.00;0.62;0.00;0.00;0.62;3.10;2.63;;;23.00;18.90;;;;;;2231758;62;20439;-55
2022/03/21 08:46:12;0.00;0.00;0.62;0.00;0.00;0.62;3.07;2.77;;;23.10;18.90;;;;;;2231863;62;20408;-50
2022/03/21 08:52:03;0.00;0.00;0.62;0.00;0.00;0.62;2.67;2.37;;;23.10;18.90;;;;;;2231572;62;20459;-52
2022/03/21 08:54:48;0.00;0.00;0.62;0.00;0.00;0.62;2.90;2.60;;;23.10;18.90;;;;;;2231667;62;20367;-51
2022/03/21 08:57:33;0.00;0.00;0.62;0.00;0.00;0.62;3.07;2.60;;;23.10;18.90;;;;;;2231827;62;20838;-51
2022/03/21 09:00:18;0.00;0.00;0.62;0.00;0.00;0.62;2.70;2.10;;;23.10;19.00;;;;;;2231656;62;20432;-51
2022/03/21 09:03:02;0.00;0.00;0.62;0.00;0.00;0.62;3.00;2.50;;;23.20;19.00;;;;;;2231727;62;20391;-55
2022/03/21 09:05:48;0.00;0.00;0.62;0.00;0.00;0.62;2.73;2.10;;;23.10;19.00;;;;;;2231882;62;20386;-56
2022/03/21 09:08:35;0.00;0.00;0.62;0.00;0.00;0.62;3.00;2.70;;;23.20;19.00;;;;;;2231700;62;20403;-52
2022/03/21 09:11:20;0.00;0.00;0.62;0.00;0.00;0.62;3.63;2.80;;;23.10;19.00;;;;;;2232044;62;20427;-50
2022/03/21 09:14:08;0.00;0.00;0.62;0.00;0.00;0.62;3.07;2.53;;;23.20;19.10;;;;;;2231565;62;20367;-54
2022/03/21 09:16:53;0.00;0.00;0.62;0.00;0.00;0.62;3.50;2.80;;;23.20;19.40;;;;;;2233635;62;20512;-53
2022/03/21 09:19:37;0.00;0.00;0.62;0.00;0.00;0.62;2.60;2.23;;;23.20;19.10;;;;;;2231504;62;20500;-53
2022/03/21 09:22:23;0.00;0.00;0.62;0.00;0.00;0.62;3.10;2.60;;;23.20;19.10;;;;;;2231853;62;20785;-53
2022/03/21 09:25:08;0.00;0.00;0.62;0.00;0.00;0.62;3.20;2.67;;;23.20;19.10;;;;;;2231397;62;20935;-56
2022/03/21 09:27:53;0.00;0.00;0.62;0.00;0.00;0.62;2.57;2.37;;;23.30;19.20;;;;;;2231415;62;20378;-55
2022/03/21 09:30:39;0.00;0.00;0.62;0.00;0.00;0.62;2.83;2.53;;;23.30;19.10;;;;;;2231536;62;20903;-57
2022/03/21 09:33:24;0.00;0.00;0.62;0.00;0.00;0.62;3.23;2.60;;;23.30;19.20;;;;;;2231776;62;20411;-56
2022/03/21 09:36:09;0.00;0.00;0.62;0.00;0.00;0.62;2.70;2.13;;;23.30;19.20;;;;;;2231429;62;20463;-55
2022/03/21 09:38:55;0.00;0.00;0.62;0.00;0.00;0.62;3.20;2.77;;;23.30;19.20;;;;;;2231589;62;20420;-55
2022/03/21 09:41:40;0.00;0.00;0.62;0.00;0.00;0.62;3.17;2.67;;;23.40;19.30;;;;;;2231671;62;20919;-54
2022/03/21 09:44:26;0.00;0.00;0.62;0.00;0.00;0.62;2.60;2.40;;;23.40;19.30;;;;;;2231793;62;20789;-52
2022/03/21 09:50:16;0.00;0.00;0.62;0.00;0.00;0.62;3.10;2.80;;;23.40;19.30;;;;;;2231092;62;20352;-56
2022/03/21 09:53:01;0.00;0.00;0.62;0.00;0.00;0.62;3.67;2.40;;;23.50;19.40;;;;;;2231565;62;20415;-55
2022/03/21 09:55:48;0.00;0.00;0.62;0.00;0.00;0.62;2.83;2.10;;;23.50;19.40;;;;;;2234169;62;20416;-54
2022/03/21 09:58:32;0.00;0.00;0.62;0.00;0.00;0.62;2.53;2.20;;;23.50;19.40;;;;;;2231316;62;20832;-58
2022/03/21 10:01:18;0.00;0.00;0.62;0.00;0.00;0.62;2.97;2.17;;;23.50;19.50;;;;;;2231304;62;20479;-59
2022/03/21 10:04:03;0.00;0.00;0.62;0.00;0.00;0.62;3.50;2.30;;;23.50;20.00;;;;;;2231436;62;20430;-54
2022/03/21 10:06:49;0.00;0.00;0.62;0.00;0.00;0.62;2.63;2.23;;;23.50;19.50;;;;;;2231734;62;20422;-57
2022/03/21 10:09:34;0.00;0.00;0.62;0.00;0.00;0.62;2.60;2.23;;;23.60;19.50;;;;;;2231168;62;20908;-53
2022/03/21 10:12:20;0.00;0.00;0.62;0.00;0.00;0.62;2.83;2.47;;;23.60;19.50;;;;;;2231496;62;20399;-54
2022/03/21 10:15:07;0.00;0.00;0.62;0.00;0.00;0.62;2.80;2.10;;;23.60;19.50;;;;;;2231764;62;20379;-55
2022/03/21 10:18:05;0.00;0.00;0.62;0.00;0.00;0.62;2.63;2.30;;;23.60;19.50;;;;;;2232143;62;20404;-55
2022/03/21 10:20:49;0.00;0.00;0.62;0.00;0.00;0.62;2.70;2.40;;;23.60;19.60;;;;;;2232935;62;20399;-56
2022/03/21 10:23:34;0.00;0.00;0.62;0.00;0.00;0.62;2.60;2.00;;;23.70;19.60;;;;;;2232290;62;20792;-57
2022/03/21 10:26:30;0.00;0.00;0.62;0.00;0.00;0.62;3.43;2.53;;;23.70;20.20;;;;;;2231639;62;20383;-57
2022/03/21 10:29:17;0.00;0.00;0.62;0.00;0.00;0.62;4.50;2.30;;;23.70;19.70;;;;;;2231783;62;20494;-57
2022/03/21 10:32:02;0.00;0.00;0.62;0.00;0.00;0.62;2.93;2.50;;;23.70;19.70;;;;;;2231643;62;20396;-56
2022/03/21 10:34:59;0.00;0.00;0.62;0.00;0.00;0.62;2.67;2.17;;;23.80;19.70;;;;;;2231801;62;20450;-58
2022/03/21 10:37:48;0.00;0.00;0.62;0.00;0.00;0.62;2.90;2.20;;;23.80;19.80;;;;;;2231293;62;21170;-53
2022/03/21 10:40:42;0.00;0.00;0.62;0.00;0.00;0.62;2.53;2.33;;;23.80;19.80;;;;;;2232159;62;20406;-56
2022/03/21 10:43:27;0.00;0.00;0.62;0.00;0.00;0.62;3.10;2.43;;;23.80;19.80;;;;;;2232262;62;20363;-56
2022/03/21 10:46:13;0.00;0.00;0.62;0.00;0.00;0.62;2.33;2.13;;;23.90;19.80;;;;;;2231880;62;20900;-56
2022/03/21 10:49:03;0.00;0.00;0.62;0.00;0.00;0.62;2.90;2.47;;;23.90;19.80;;;;;;2232127;62;20399;-55
2022/03/21 10:51:49;0.00;0.00;0.62;0.00;0.00;0.62;2.80;2.30;;;23.90;19.80;;;;;;2232288;62;20431;-55
2022/03/21 10:54:43;0.00;0.00;0.62;0.00;0.00;0.62;2.73;2.40;;;23.90;19.80;;;;;;2231914;62;20371;-54
2022/03/21 10:57:33;0.00;0.00;0.62;0.00;0.00;0.62;2.10;1.90;;;23.90;19.80;;;;;;2231918;62;20957;-55
2022/03/21 11:00:21;0.00;0.00;0.62;0.00;0.00;0.62;3.10;2.43;;;24.00;19.90;;;;;;2231480;62;20372;-56
2022/03/21 11:03:09;0.00;0.00;0.62;0.00;0.00;0.62;2.90;2.40;;;24.00;19.90;;;;;;2232051;62;20404;-55
2022/03/21 11:05:54;0.00;0.00;0.62;0.00;0.00;0.62;2.80;2.40;;;24.00;19.90;;;;;;2232345;62;20782;-56
2022/03/21 11:08:39;0.00;0.00;0.62;0.00;0.00;0.62;2.63;2.30;;;24.00;19.90;;;;;;2232035;62;20438;-54
2022/03/21 11:11:24;0.00;0.00;0.62;0.00;0.00;0.62;2.90;2.20;;;24.10;19.90;;;;;;2231752;62;20476;-57
2022/03/21 11:14:08;0.00;0.00;0.62;0.00;0.00;0.62;2.00;1.80;;;24.10;19.90;;;;;;2232154;62;20375;-58
2022/03/21 11:16:54;0.00;0.00;0.62;0.00;0.00;0.62;2.40;2.20;;;24.10;19.90;;;;;;2232169;62;20428;-54
2022/03/21 11:19:40;0.00;0.00;0.62;0.00;0.00;0.62;2.30;2.07;;;24.20;20.00;;;;;;2231622;62;20427;-54